createdAt,value
2018-05-23T17:34:08.676Z,368
2018-05-23T17:36:11.346Z,360
2018-05-23T17:38:12.777Z,352
2018-05-23T17:40:14.566Z,344
2018-05-23T17:42:16.079Z,336
2018-05-23T17:44:17.630Z,328
2018-05-23T17:46:19.351Z,320
2018-05-23T17:48:20.867Z,320
2018-05-23T17:50:22.719Z,308
2018-05-23T17:52:24.293Z,300
2018-05-23T17:54:26.017Z,292
2018-05-23T17:56:27.666Z,284
2018-05-23T17:58:29.248Z,276
2018-05-23T18:00:30.904Z,268
2018-05-23T18:02:32.551Z,264
2018-05-23T18:04:34.107Z,256
2018-05-23T18:06:36.011Z,248
2018-05-23T18:08:37.572Z,244
2018-05-23T18:10:39.505Z,236
2018-05-23T18:12:41.285Z,228
2018-05-23T18:14:43.040Z,224
2018-05-23T18:16:44.602Z,216
2018-05-23T18:18:46.213Z,204
2018-05-23T18:20:47.695Z,200
2018-05-23T18:22:49.218Z,192
2018-05-23T18:24:51.001Z,184
2018-05-23T18:26:52.757Z,180
2018-05-23T18:28:54.607Z,172
2018-05-23T18:30:56.455Z,168
2018-05-23T18:32:58.222Z,164
2018-05-23T18:34:59.896Z,152
2018-05-23T18:37:01.443Z,148
2018-05-23T18:39:03.018Z,144
2018-05-23T18:41:04.576Z,136
2018-05-23T18:43:06.384Z,128
2018-05-23T18:45:08.144Z,128
2018-05-23T18:47:10.592Z,120
2018-05-23T18:49:12.409Z,116
2018-05-23T18:51:14.072Z,108
2018-05-23T18:53:15.950Z,100
2018-05-23T18:55:17.939Z,96
2018-05-23T18:57:19.822Z,92
2018-05-23T18:59:21.831Z,88
2018-05-23T19:01:23.766Z,80
2018-05-23T19:03:25.552Z,76
2018-05-23T19:05:27.384Z,72
2018-05-23T19:07:29.165Z,64
2018-05-23T19:09:30.935Z,56
2018-05-23T19:11:32.787Z,52
2018-05-23T19:13:34.599Z,48
2018-05-23T19:15:36.484Z,44
2018-05-23T19:18:19.459Z,36
2018-05-23T19:20:21.638Z,32
2018-05-23T19:22:23.466Z,28
2018-05-23T19:24:25.080Z,24
2018-05-23T19:26:26.883Z,20
2018-05-23T19:28:28.713Z,16
2018-05-23T19:30:30.602Z,16
2018-05-23T19:32:32.458Z,12
2018-05-23T19:34:34.421Z,12
2018-05-23T19:36:36.997Z,8
2018-05-23T19:39:22.257Z,8
2018-05-23T19:41:24.702Z,8
2018-05-23T19:43:26.559Z,4
2018-05-23T19:45:28.485Z,4
2018-05-23T19:48:11.444Z,0
2018-05-23T19:50:13.287Z,0
2018-05-23T19:52:14.858Z,0
2018-05-23T19:54:16.385Z,0
2018-05-23T19:56:17.908Z,0
2018-05-23T19:58:19.368Z,0
2018-05-23T20:00:20.819Z,4
2018-05-23T20:02:22.291Z,0
2018-05-23T20:04:25.073Z,0
2018-05-23T20:06:26.775Z,0
2018-05-23T20:08:28.362Z,0
2018-05-23T20:10:29.894Z,0
2018-05-23T20:12:31.361Z,0
2018-05-23T20:14:32.902Z,0
2018-05-23T20:16:34.347Z,0
2018-05-23T20:18:35.804Z,0
2018-05-23T20:20:37.444Z,0
2018-05-23T20:22:38.875Z,0
2018-05-23T20:24:40.394Z,0
2018-05-23T20:26:41.929Z,0
2018-05-23T20:28:43.396Z,0
2018-05-23T20:30:44.865Z,0
2018-05-23T20:32:46.667Z,0
2018-05-23T20:34:48.109Z,0
2018-05-23T20:36:49.640Z,0
2018-05-23T20:38:51.262Z,0
2018-05-23T20:40:53.605Z,0
2018-05-23T20:42:55.131Z,0
2018-05-23T20:44:56.949Z,0
2018-05-23T20:46:59.233Z,0
2018-05-23T20:49:00.697Z,0
2018-05-23T20:51:02.257Z,32
2018-05-23T20:53:03.828Z,32
2018-05-23T20:55:05.428Z,28
2018-05-23T20:57:06.898Z,28
2018-05-23T20:59:08.383Z,28
2018-05-23T21:01:09.916Z,28
2018-05-23T21:03:11.380Z,28
2018-05-23T21:05:12.920Z,32
2018-05-23T21:07:14.390Z,28
2018-05-23T21:09:15.977Z,32
2018-05-23T21:11:17.430Z,0
2018-05-23T21:13:19.011Z,0
2018-05-23T21:15:21.171Z,0
2018-05-23T21:17:22.882Z,0
2018-05-23T21:19:24.552Z,0
2018-05-23T21:21:25.997Z,0
2018-05-23T21:23:27.575Z,0
2018-05-23T21:25:29.077Z,0
2018-05-23T21:27:30.575Z,0
2018-05-23T21:29:32.111Z,0
2018-05-23T21:31:33.614Z,0
2018-05-23T21:33:35.140Z,0
2018-05-23T21:35:36.728Z,0
2018-05-23T21:37:38.286Z,0
2018-05-23T21:39:39.863Z,0
2018-05-23T21:41:41.345Z,0
2018-05-23T21:43:42.855Z,0
2018-05-23T21:45:44.379Z,0
2018-05-23T21:47:45.881Z,0
2018-05-23T21:49:47.387Z,0
2018-05-23T21:51:48.904Z,0
2018-05-23T21:53:50.386Z,0
2018-05-23T21:55:51.855Z,0
2018-05-23T21:57:53.392Z,0
2018-05-23T21:59:54.924Z,0
2018-05-23T22:01:56.414Z,0
2018-05-23T22:03:57.969Z,0
2018-05-23T22:05:59.735Z,0
2018-05-23T22:08:01.283Z,0
2018-05-23T22:10:02.753Z,0
2018-05-23T22:12:04.568Z,0
2018-05-23T22:14:06.224Z,0
2018-05-23T22:16:07.808Z,0
2018-05-23T22:18:51.429Z,0
2018-05-23T22:20:52.776Z,0
2018-05-23T22:22:54.238Z,0
2018-05-23T22:24:55.680Z,0
2018-05-23T22:26:57.219Z,0
2018-05-23T22:28:58.710Z,0
2018-05-23T22:31:00.144Z,0
2018-05-23T22:33:01.566Z,0
2018-05-23T22:35:03.016Z,0
2018-05-23T22:37:04.476Z,0
2018-05-23T22:39:46.955Z,0
2018-05-23T22:41:48.350Z,0
2018-05-23T22:43:49.784Z,0
2018-05-23T22:45:51.250Z,0
2018-05-23T22:47:52.690Z,0
2018-05-23T22:49:54.149Z,0
2018-05-23T22:51:55.578Z,0
2018-05-23T22:53:57.020Z,0
2018-05-23T22:55:58.485Z,0
2018-05-23T22:57:59.972Z,0
2018-05-23T23:00:01.506Z,0
2018-05-23T23:02:03.028Z,0
2018-05-23T23:04:04.495Z,0
2018-05-23T23:06:06.054Z,0
2018-05-23T23:08:48.475Z,0
2018-05-23T23:10:49.900Z,0
2018-05-23T23:12:51.324Z,0
2018-05-23T23:14:52.748Z,0
2018-05-23T23:16:54.215Z,0
2018-05-23T23:18:55.699Z,0
2018-05-23T23:20:57.201Z,0
2018-05-23T23:22:58.719Z,0
2018-05-23T23:25:00.379Z,0
2018-05-23T23:27:01.891Z,0
2018-05-23T23:29:03.409Z,0
2018-05-23T23:31:04.909Z,0
2018-05-23T23:33:06.375Z,0
2018-05-23T23:35:07.873Z,0
2018-05-23T23:37:09.389Z,0
2018-05-23T23:39:10.860Z,0
2018-05-23T23:41:12.323Z,0
2018-05-23T23:43:13.844Z,0
2018-05-23T23:45:15.310Z,0
2018-05-23T23:47:57.797Z,0
2018-05-23T23:49:59.276Z,0
2018-05-23T23:52:00.757Z,0
2018-05-23T23:54:02.148Z,0
2018-05-23T23:56:03.572Z,0
2018-05-23T23:58:46.035Z,0
